createdAt,value
2019-04-01T00:01:14.688Z,90.90
2019-04-01T00:03:44.283Z,91.70
2019-04-01T00:06:13.997Z,92.20
2019-04-01T00:08:43.502Z,92.60
2019-04-01T00:11:12.975Z,92.40
2019-04-01T00:13:42.460Z,92.40
2019-04-01T00:16:11.927Z,92.50
2019-04-01T00:18:41.455Z,92.60
2019-04-01T00:21:10.965Z,92.80
2019-04-01T00:23:40.434Z,92.70
2019-04-01T00:26:09.861Z,92.90
2019-04-01T00:28:39.376Z,93.40
2019-04-01T00:31:08.790Z,93.30
2019-04-01T00:33:38.188Z,93.40
2019-04-01T00:36:07.710Z,93.80
2019-04-01T00:38:38.305Z,93.90
2019-04-01T00:41:07.877Z,93.70
2019-04-01T00:43:39.045Z,93.40
2019-04-01T00:46:09.587Z,93.50
2019-04-01T00:48:39.110Z,93.70
2019-04-01T00:51:08.544Z,93.60
2019-04-01T00:53:38.004Z,93.90
2019-04-01T00:56:07.557Z,93.80
2019-04-01T00:58:36.959Z,93.00
2019-04-01T01:01:06.653Z,93.40
2019-04-01T01:03:36.172Z,93.60
2019-04-01T01:06:05.565Z,94.10
2019-04-01T01:08:35.002Z,94.10
2019-04-01T01:11:04.561Z,94.30
2019-04-01T01:13:34.012Z,94.20
2019-04-01T01:16:03.743Z,94.40
2019-04-01T01:18:33.145Z,94.50
2019-04-01T01:21:02.771Z,94.70
2019-04-01T01:23:32.417Z,94.60
2019-04-01T01:26:01.841Z,94.80
2019-04-01T01:28:31.273Z,95.50
2019-04-01T01:31:00.865Z,95.90
2019-04-01T01:33:30.468Z,96.30
2019-04-01T01:35:59.877Z,96.60
2019-04-01T01:38:29.349Z,96.50
2019-04-01T01:40:58.827Z,96.50
2019-04-01T01:43:28.192Z,96.50
2019-04-01T01:45:57.608Z,96.30
2019-04-01T01:48:27.175Z,96.30
2019-04-01T01:50:56.783Z,96.30
2019-04-01T01:53:26.211Z,96.10
2019-04-01T01:55:55.744Z,96.10
2019-04-01T01:58:25.202Z,96.20
2019-04-01T02:00:56.348Z,96.90
2019-04-01T02:03:25.904Z,97.00
2019-04-01T02:05:55.435Z,97.00
2019-04-01T02:08:24.999Z,97.20
2019-04-01T02:10:54.658Z,97.20
2019-04-01T02:13:24.266Z,97.40
2019-04-01T02:15:53.737Z,97.20
2019-04-01T02:18:23.279Z,97.10
2019-04-01T02:20:52.911Z,97.00
2019-04-01T02:23:22.381Z,97.10
2019-04-01T02:25:51.933Z,97.40
2019-04-01T02:28:21.598Z,97.60
2019-04-01T02:30:51.207Z,97.90
2019-04-01T02:33:20.616Z,98.10
2019-04-01T02:35:50.102Z,98.30
2019-04-01T02:38:19.734Z,98.50
2019-04-01T02:40:49.408Z,99.00
2019-04-01T02:43:18.795Z,99.40
2019-04-01T02:45:48.282Z,99.10
2019-04-01T02:48:17.751Z,99.30
2019-04-01T02:50:47.363Z,99.40
2019-04-01T02:53:16.856Z,99.40
2019-04-01T02:55:46.459Z,99.20
2019-04-01T02:58:15.944Z,99.10
2019-04-01T03:00:45.882Z,99.20
2019-04-01T03:03:16.525Z,99.30
2019-04-01T03:05:45.959Z,99.20
2019-04-01T03:08:15.551Z,99.10
2019-04-01T03:10:45.127Z,99.20
2019-04-01T03:13:14.527Z,99.30
2019-04-01T03:15:44.137Z,99.20
2019-04-01T03:18:13.556Z,99.20
2019-04-01T03:20:43.042Z,99.30
2019-04-01T03:23:12.594Z,99.30
2019-04-01T03:25:42.253Z,99.50
2019-04-01T03:28:11.655Z,99.70
2019-04-01T03:30:41.066Z,99.70
2019-04-01T03:33:12.730Z,99.70
2019-04-01T03:35:42.246Z,99.70
2019-04-01T03:38:11.809Z,99.80
2019-04-01T03:40:41.250Z,99.80
2019-04-01T03:43:10.717Z,99.90
2019-04-01T03:45:40.179Z,99.90
2019-04-01T03:48:09.755Z,99.90
2019-04-01T03:50:39.233Z,99.90
2019-04-01T03:53:08.822Z,99.90
2019-04-01T03:55:38.273Z,99.90
2019-04-01T03:58:07.749Z,99.90
2019-04-01T04:00:37.360Z,99.90
2019-04-01T04:03:06.892Z,99.90
2019-04-01T04:05:36.386Z,99.90
2019-04-01T04:08:05.935Z,99.90
2019-04-01T04:10:35.389Z,99.90
2019-04-01T04:13:04.985Z,99.90
2019-04-01T04:15:35.040Z,99.90
2019-04-01T04:18:04.525Z,99.90
2019-04-01T04:20:34.059Z,99.90
2019-04-01T04:23:03.557Z,99.90
2019-04-01T04:25:33.180Z,99.90
2019-04-01T04:28:02.723Z,99.90
2019-04-01T04:30:32.239Z,99.90
2019-04-01T04:33:01.654Z,99.90
2019-04-01T04:35:31.121Z,99.90
2019-04-01T04:38:00.607Z,99.90
2019-04-01T04:40:30.066Z,99.90
2019-04-01T04:42:59.482Z,99.90
2019-04-01T04:45:28.889Z,99.90
2019-04-01T04:47:58.263Z,99.90
2019-04-01T04:50:27.697Z,99.90
2019-04-01T04:52:57.181Z,99.90
2019-04-01T04:55:27.686Z,99.90
2019-04-01T04:57:58.432Z,99.90
2019-04-01T05:00:27.967Z,99.90
2019-04-01T05:02:57.446Z,99.90
2019-04-01T05:05:26.910Z,99.90
2019-04-01T05:07:56.597Z,99.90
2019-04-01T05:10:26.119Z,99.90
2019-04-01T05:12:55.499Z,99.90
2019-04-01T05:15:25.029Z,99.90
2019-04-01T05:17:54.528Z,99.90
2019-04-01T05:20:24.044Z,99.90
2019-04-01T05:22:54.748Z,99.90
2019-04-01T05:25:24.927Z,99.90
2019-04-01T05:27:56.065Z,99.90
2019-04-01T05:30:25.588Z,99.90
2019-04-01T05:32:56.173Z,99.90
2019-04-01T05:35:26.535Z,99.90
2019-04-01T05:37:56.132Z,99.90
2019-04-01T05:40:26.599Z,99.90
2019-04-01T05:42:56.380Z,99.90
2019-04-01T05:45:25.788Z,99.90
2019-04-01T05:47:55.796Z,99.90
2019-04-01T05:50:25.501Z,99.90
2019-04-01T05:52:55.485Z,99.90
2019-04-01T05:55:25.648Z,99.90
2019-04-01T05:57:55.256Z,99.90
2019-04-01T06:00:27.463Z,99.90
2019-04-01T06:02:57.085Z,99.90
2019-04-01T06:05:26.521Z,99.90
2019-04-01T06:07:57.827Z,99.90
2019-04-01T06:10:27.506Z,99.90
2019-04-01T06:12:58.044Z,99.90
2019-04-01T06:15:27.426Z,99.90
2019-04-01T06:17:57.096Z,99.90
2019-04-01T06:20:26.620Z,99.90
2019-04-01T06:22:56.110Z,99.90
2019-04-01T06:25:25.609Z,99.90
2019-04-01T06:27:55.157Z,99.90
2019-04-01T06:30:24.762Z,99.90
2019-04-01T06:32:54.395Z,99.90
2019-04-01T06:35:24.060Z,99.90
2019-04-01T06:37:53.769Z,99.90
2019-04-01T06:40:23.381Z,99.90
2019-04-01T06:42:53.402Z,99.90
2019-04-01T06:45:22.917Z,99.90
2019-04-01T06:47:52.385Z,99.90
2019-04-01T06:50:22.030Z,99.50
2019-04-01T06:52:51.564Z,99.90
2019-04-01T06:55:20.937Z,99.50
2019-04-01T06:57:50.834Z,99.10
2019-04-01T07:00:20.292Z,99.90
2019-04-01T07:02:49.773Z,99.00
2019-04-01T07:05:19.337Z,99.40
2019-04-01T07:07:48.838Z,98.90
2019-04-01T07:10:18.323Z,99.00
2019-04-01T07:12:47.963Z,99.90
2019-04-01T07:15:17.591Z,99.30
2019-04-01T07:17:47.098Z,99.20
2019-04-01T07:20:17.642Z,98.80
2019-04-01T07:22:47.251Z,97.80
2019-04-01T07:25:17.240Z,96.70
2019-04-01T07:27:46.926Z,97.40
2019-04-01T07:30:16.866Z,96.90
2019-04-01T07:32:46.393Z,96.60
2019-04-01T07:35:16.135Z,97.00
2019-04-01T07:37:45.819Z,96.90
2019-04-01T07:40:15.506Z,98.00
2019-04-01T07:42:45.449Z,97.30
2019-04-01T07:45:15.194Z,98.00
2019-04-01T07:47:45.075Z,98.30
2019-04-01T07:50:15.465Z,97.50
2019-04-01T07:52:45.240Z,96.90
2019-04-01T07:55:14.920Z,97.90
2019-04-01T07:57:44.455Z,97.40
2019-04-01T08:00:14.332Z,96.80
2019-04-01T08:02:43.792Z,96.90
2019-04-01T08:05:14.077Z,96.30
2019-04-01T08:07:43.607Z,95.70
2019-04-01T08:10:13.848Z,95.30
2019-04-01T08:12:43.389Z,95.50
2019-04-01T08:15:12.993Z,95.90
2019-04-01T08:17:42.520Z,96.10
2019-04-01T08:20:12.509Z,95.10
2019-04-01T08:22:43.431Z,95.90
2019-04-01T08:25:13.288Z,94.50
2019-04-01T08:27:42.923Z,94.90
2019-04-01T08:30:12.942Z,94.10
2019-04-01T08:32:42.564Z,93.10
2019-04-01T08:35:12.275Z,96.70
2019-04-01T08:37:41.961Z,96.80
2019-04-01T08:40:11.936Z,96.00
2019-04-01T08:42:41.697Z,94.40
2019-04-01T08:45:11.494Z,93.10
2019-04-01T08:47:41.037Z,93.10
2019-04-01T08:50:11.770Z,92.70
2019-04-01T08:52:41.283Z,93.50
2019-04-01T08:55:12.597Z,92.00
2019-04-01T08:57:42.186Z,93.70
2019-04-01T09:00:12.784Z,92.30
2019-04-01T09:02:42.539Z,94.10
2019-04-01T09:05:12.051Z,90.70
2019-04-01T09:07:41.871Z,91.30
2019-04-01T09:10:11.970Z,92.50
2019-04-01T09:12:41.897Z,92.40
2019-04-01T09:15:12.210Z,92.70
2019-04-01T09:17:41.800Z,91.90
2019-04-01T09:20:12.341Z,91.70
2019-04-01T09:22:41.829Z,93.20
2019-04-01T09:25:11.492Z,91.00
2019-04-01T09:27:40.867Z,91.00
2019-04-01T09:30:11.130Z,90.90
2019-04-01T09:32:40.666Z,91.70
2019-04-01T09:35:10.557Z,90.70
2019-04-01T09:37:40.048Z,90.10
2019-04-01T09:40:09.892Z,89.40
2019-04-01T09:42:39.532Z,91.60
2019-04-01T09:45:09.132Z,90.50
2019-04-01T09:47:39.759Z,88.60
2019-04-01T09:50:09.616Z,90.90
2019-04-01T09:52:39.021Z,89.60
2019-04-01T09:55:08.778Z,90.30
2019-04-01T09:57:38.399Z,83.10
2019-04-01T10:00:10.861Z,87.10
2019-04-01T10:02:40.590Z,88.30
2019-04-01T10:05:10.627Z,84.60
2019-04-01T10:07:40.352Z,82.20
2019-04-01T10:10:10.481Z,81.00
2019-04-01T10:12:40.036Z,81.70
2019-04-01T10:15:09.896Z,83.80
2019-04-01T10:17:39.434Z,78.50
2019-04-01T10:20:09.558Z,78.00
2019-04-01T10:22:39.183Z,78.90
2019-04-01T10:25:09.187Z,84.10
2019-04-01T10:27:38.700Z,77.70
2019-04-01T10:30:10.288Z,78.10
2019-04-01T10:32:39.914Z,75.90
2019-04-01T10:35:09.981Z,75.40
2019-04-01T10:37:39.581Z,74.70
2019-04-01T10:40:09.740Z,75.00
2019-04-01T10:42:39.371Z,72.20
2019-04-01T10:45:10.320Z,71.40
2019-04-01T10:47:39.830Z,72.20
2019-04-01T10:50:10.113Z,73.60
2019-04-01T10:52:39.880Z,68.30
2019-04-01T10:55:09.587Z,73.20
2019-04-01T10:57:39.371Z,69.60
2019-04-01T11:00:10.080Z,70.30
2019-04-01T11:02:39.593Z,75.80
2019-04-01T11:05:09.219Z,67.40
2019-04-01T11:07:38.781Z,63.30
2019-04-01T11:10:11.387Z,65.80
2019-04-01T11:12:40.239Z,67.10
2019-04-01T11:15:10.382Z,63.50
2019-04-01T11:17:39.983Z,65.40
2019-04-01T11:20:10.614Z,70.70
2019-04-01T11:22:40.196Z,63.00
2019-04-01T11:25:09.684Z,65.50
2019-04-01T11:27:39.272Z,61.80
2019-04-01T11:30:13.414Z,64.00
2019-04-01T11:32:40.774Z,58.00
2019-04-01T11:35:10.586Z,55.20
2019-04-01T11:37:41.555Z,55.10
2019-04-01T11:40:12.527Z,66.60
2019-04-01T11:42:42.377Z,55.80
2019-04-01T11:45:12.235Z,56.90
2019-04-01T11:47:41.816Z,65.40
2019-04-01T11:50:11.515Z,66.50
2019-04-01T11:52:41.093Z,61.10
2019-04-01T11:55:10.951Z,53.10
2019-04-01T11:57:41.011Z,57.70
2019-04-01T12:00:13.540Z,55.60
2019-04-01T12:02:43.392Z,54.10
2019-04-01T12:05:13.359Z,57.20
2019-04-01T12:07:43.052Z,54.00
2019-04-01T12:10:12.880Z,52.30
2019-04-01T12:12:42.489Z,58.00
2019-04-01T12:15:12.818Z,53.50
2019-04-01T12:17:42.529Z,57.80
2019-04-01T12:20:12.163Z,49.80
2019-04-01T12:22:45.458Z,50.10
2019-04-01T12:25:12.790Z,50.50
2019-04-01T12:27:42.424Z,48.00
2019-04-01T12:30:12.614Z,49.80
2019-04-01T12:32:42.022Z,52.80
2019-04-01T12:35:11.545Z,50.60
2019-04-01T12:37:41.031Z,52.70
2019-04-01T12:40:12.298Z,54.00
2019-04-01T12:42:41.853Z,53.20
2019-04-01T12:45:11.929Z,49.30
2019-04-01T12:47:43.351Z,48.80
2019-04-01T12:50:12.877Z,53.40
2019-04-01T12:52:42.421Z,53.20
2019-04-01T12:55:12.309Z,52.50
2019-04-01T12:57:41.864Z,49.50
2019-04-01T13:00:13.396Z,48.00
2019-04-01T13:02:43.030Z,47.80
2019-04-01T13:05:12.915Z,52.40
2019-04-01T13:07:42.536Z,49.00
2019-04-01T13:10:12.191Z,50.90
2019-04-01T13:12:41.758Z,46.40
2019-04-01T13:15:13.121Z,46.00
2019-04-01T13:17:42.911Z,51.20
2019-04-01T13:20:14.362Z,47.80
2019-04-01T13:22:43.929Z,47.20
2019-04-01T13:25:13.483Z,51.90
2019-04-01T13:27:43.014Z,54.40
2019-04-01T13:30:14.220Z,48.10
2019-04-01T13:32:43.718Z,50.00
2019-04-01T13:35:13.574Z,46.40
2019-04-01T13:37:44.041Z,49.20
2019-04-01T13:40:15.227Z,47.70
2019-04-01T13:42:44.937Z,48.70
2019-04-01T13:45:16.145Z,48.40
2019-04-01T13:47:45.583Z,51.30
2019-04-01T13:50:16.553Z,48.60
2019-04-01T13:52:46.263Z,45.70
2019-04-01T13:55:15.913Z,44.90
2019-04-01T13:57:45.447Z,42.90
2019-04-01T14:00:15.653Z,43.80
2019-04-01T14:02:45.192Z,47.70
2019-04-01T14:05:15.174Z,46.50
2019-04-01T14:07:44.805Z,45.20
2019-04-01T14:10:14.608Z,43.30
2019-04-01T14:12:45.247Z,44.40
2019-04-01T14:15:15.079Z,48.00
2019-04-01T14:17:44.613Z,45.30
2019-04-01T14:20:15.811Z,48.20
2019-04-01T14:22:45.391Z,45.60
2019-04-01T14:25:14.899Z,45.70
2019-04-01T14:27:44.292Z,50.00
2019-04-01T14:30:14.211Z,45.30
2019-04-01T14:32:43.812Z,47.40
2019-04-01T14:35:13.429Z,43.40
2019-04-01T14:37:42.873Z,46.30
2019-04-01T14:40:12.789Z,41.60
2019-04-01T14:42:42.437Z,40.40
2019-04-01T14:45:12.166Z,41.80
2019-04-01T14:47:56.052Z,42.60
2019-04-01T14:50:13.348Z,46.00
2019-04-01T14:52:42.912Z,50.70
2019-04-01T14:55:12.485Z,48.70
2019-04-01T14:57:41.908Z,43.60
2019-04-01T15:00:12.993Z,48.90
2019-04-01T15:02:42.596Z,46.40
2019-04-01T15:05:12.514Z,47.30
2019-04-01T15:07:41.914Z,45.80
2019-04-01T15:10:11.892Z,49.90
2019-04-01T15:12:41.493Z,45.30
2019-04-01T15:15:11.053Z,44.60
2019-04-01T15:17:40.618Z,46.50
2019-04-01T15:20:10.857Z,43.80
2019-04-01T15:22:40.346Z,45.40
2019-04-01T15:25:10.148Z,41.90
2019-04-01T15:27:39.556Z,44.40
2019-04-01T15:30:13.708Z,44.00
2019-04-01T15:32:41.167Z,44.00
2019-04-01T15:35:11.901Z,46.00
2019-04-01T15:37:41.382Z,44.40
2019-04-01T15:40:33.050Z,40.70
2019-04-01T15:43:01.237Z,42.70
2019-04-01T15:45:31.428Z,39.60
2019-04-01T15:48:01.207Z,43.50
2019-04-01T15:50:30.730Z,42.10
2019-04-01T15:53:00.195Z,41.30
2019-04-01T15:55:29.681Z,45.30
2019-04-01T15:57:59.218Z,48.40
2019-04-01T16:00:28.914Z,45.80
2019-04-01T16:02:58.404Z,42.40
2019-04-01T16:05:30.478Z,45.30
2019-04-01T16:07:59.225Z,44.10
2019-04-01T16:10:29.413Z,45.70
2019-04-01T16:12:59.018Z,46.60
2019-04-01T16:15:31.764Z,48.30
2019-04-01T16:17:59.760Z,41.90
2019-04-01T16:20:29.212Z,44.90
2019-04-01T16:22:58.736Z,45.50
2019-04-01T16:25:28.257Z,46.70
2019-04-01T16:27:57.897Z,48.90
2019-04-01T16:30:28.107Z,48.00
2019-04-01T16:32:59.560Z,51.70
2019-04-01T16:35:29.260Z,47.30
2019-04-01T16:37:59.495Z,50.30
2019-04-01T16:40:29.245Z,50.00
2019-04-01T16:42:58.722Z,48.90
2019-04-01T16:45:28.290Z,49.80
2019-04-01T16:47:57.758Z,50.90
2019-04-01T16:50:28.683Z,48.30
2019-04-01T16:52:58.608Z,51.70
2019-04-01T16:55:28.114Z,51.50
2019-04-01T16:57:57.519Z,53.70
2019-04-01T17:00:27.075Z,52.60
2019-04-01T17:02:56.671Z,54.50
2019-04-01T17:05:29.239Z,56.40
2019-04-01T17:07:59.897Z,57.10
2019-04-01T17:10:29.497Z,55.40
2019-04-01T17:13:01.402Z,55.10
2019-04-01T17:15:30.376Z,54.90
2019-04-01T17:17:59.996Z,54.70
2019-04-01T17:20:29.572Z,56.20
2019-04-01T17:22:59.081Z,56.30
2019-04-01T17:25:28.625Z,56.50
2019-04-01T17:27:58.214Z,58.10
2019-04-01T17:30:29.279Z,56.80
2019-04-01T17:32:58.809Z,57.30
2019-04-01T17:35:28.363Z,56.60
2019-04-01T17:37:57.978Z,56.40
2019-04-01T17:40:27.658Z,56.70
2019-04-01T17:42:58.182Z,58.90
2019-04-01T17:45:31.340Z,58.20
2019-04-01T17:48:00.976Z,57.10
2019-04-01T17:50:30.876Z,56.80
2019-04-01T17:53:00.443Z,58.10
2019-04-01T17:55:29.951Z,56.30
2019-04-01T17:57:59.552Z,57.10
2019-04-01T18:00:31.009Z,61.10
2019-04-01T18:03:02.005Z,59.80
2019-04-01T18:05:32.281Z,58.10
2019-04-01T18:08:02.033Z,61.00
2019-04-01T18:10:32.014Z,59.60
2019-04-01T18:13:01.699Z,58.10
2019-04-01T18:15:31.306Z,59.50
2019-04-01T18:18:01.128Z,59.30
2019-04-01T18:20:32.314Z,58.10
2019-04-01T18:23:02.020Z,64.20
2019-04-01T18:25:31.499Z,64.10
2019-04-01T18:28:02.435Z,63.90
2019-04-01T18:30:32.219Z,65.50
2019-04-01T18:33:01.772Z,65.50
2019-04-01T18:35:31.232Z,67.20
2019-04-01T18:38:00.881Z,67.90
2019-04-01T18:40:33.339Z,66.10
2019-04-01T18:43:01.636Z,65.50
2019-04-01T18:45:31.123Z,65.80
2019-04-01T18:48:00.538Z,64.40
2019-04-01T18:50:30.070Z,64.00
2019-04-01T18:52:59.549Z,65.90
2019-04-01T18:55:29.065Z,73.30
2019-04-01T18:57:58.473Z,74.70
2019-04-01T19:00:28.054Z,71.90
2019-04-01T19:02:57.580Z,70.20
2019-04-01T19:05:27.188Z,69.70
2019-04-01T19:07:56.838Z,66.50
2019-04-01T19:10:26.360Z,76.00
2019-04-01T19:13:05.775Z,72.70
2019-04-01T19:15:28.037Z,70.70
2019-04-01T19:17:57.910Z,71.60
2019-04-01T19:20:30.355Z,71.10
2019-04-01T19:22:59.496Z,71.10
2019-04-01T19:25:28.982Z,76.20
2019-04-01T19:27:58.479Z,74.30
2019-04-01T19:30:28.173Z,85.20
2019-04-01T19:32:57.774Z,84.20
2019-04-01T19:35:27.280Z,81.60
2019-04-01T19:37:56.886Z,83.10
2019-04-01T19:40:26.502Z,80.80
2019-04-01T19:42:56.036Z,80.30
2019-04-01T19:45:25.657Z,83.30
2019-04-01T19:47:57.283Z,86.60
2019-04-01T19:50:26.369Z,88.20
2019-04-01T19:52:55.942Z,84.30
2019-04-01T19:55:25.430Z,83.00
2019-04-01T19:57:56.126Z,85.90
2019-04-01T20:00:28.019Z,85.70
2019-04-01T20:02:57.011Z,88.80
2019-04-01T20:05:26.532Z,84.70
2019-04-01T20:07:56.007Z,82.20
2019-04-01T20:10:28.243Z,81.40
2019-04-01T20:12:56.757Z,80.50
2019-04-01T20:15:26.396Z,80.30
2019-04-01T20:17:55.916Z,80.10
2019-04-01T20:20:25.324Z,82.20
2019-04-01T20:22:54.793Z,82.70
2019-04-01T20:25:24.445Z,83.00
2019-04-01T20:27:54.045Z,84.70
2019-04-01T20:30:25.161Z,87.90
2019-04-01T20:32:54.690Z,85.50
2019-04-01T20:35:24.229Z,81.30
2019-04-01T20:37:53.761Z,77.10
2019-04-01T20:40:24.278Z,81.60
2019-04-01T20:42:54.360Z,80.10
2019-04-01T20:45:23.891Z,81.50
2019-04-01T20:47:53.307Z,80.70
2019-04-01T20:50:23.175Z,84.00
2019-04-01T20:52:53.612Z,81.10
2019-04-01T20:55:23.087Z,80.90
2019-04-01T20:57:52.499Z,80.90
2019-04-01T21:00:22.140Z,83.90
2019-04-01T21:02:51.823Z,83.50
2019-04-01T21:05:21.352Z,84.80
2019-04-01T21:07:50.849Z,85.40
2019-04-01T21:10:20.410Z,87.10
2019-04-01T21:12:49.943Z,86.90
2019-04-01T21:15:19.482Z,86.90
2019-04-01T21:17:48.971Z,85.20
2019-04-01T21:20:18.531Z,86.00
2019-04-01T21:22:48.015Z,85.00
2019-04-01T21:25:17.492Z,84.00
2019-04-01T21:27:46.960Z,86.00
2019-04-01T21:30:17.004Z,85.80
2019-04-01T21:32:46.568Z,85.40
2019-04-01T21:35:16.203Z,85.50
2019-04-01T21:37:45.905Z,84.50
2019-04-01T21:40:15.693Z,86.90
2019-04-01T21:42:45.212Z,87.20
2019-04-01T21:45:16.112Z,89.70
2019-04-01T21:47:45.778Z,87.20
2019-04-01T21:50:16.399Z,88.50
2019-04-01T21:52:45.868Z,91.80
2019-04-01T21:55:15.440Z,92.10
2019-04-01T21:57:44.832Z,91.30
2019-04-01T22:00:17.984Z,88.80
2019-04-01T22:02:48.972Z,88.90
2019-04-01T22:05:19.449Z,84.40
2019-04-01T22:07:49.072Z,82.90
2019-04-01T22:10:18.770Z,85.60
2019-04-01T22:12:48.634Z,87.20
2019-04-01T22:15:18.851Z,86.40
2019-04-01T22:17:48.419Z,85.60
2019-04-01T22:20:18.033Z,88.10
2019-04-01T22:22:47.576Z,89.30
2019-04-01T22:25:16.959Z,89.50
2019-04-01T22:27:46.411Z,88.20
2019-04-01T22:30:17.076Z,87.80
2019-04-01T22:32:46.856Z,88.10
2019-04-01T22:35:16.395Z,89.00
2019-04-01T22:37:45.887Z,86.70
2019-04-01T22:40:15.431Z,87.40
2019-04-01T22:42:44.995Z,88.80
2019-04-01T22:45:15.844Z,88.10
2019-04-01T22:47:45.845Z,88.90
2019-04-01T22:50:15.617Z,80.70
2019-04-01T22:52:45.157Z,79.70
2019-04-01T22:55:14.657Z,79.00
2019-04-01T22:57:44.222Z,80.70
2019-04-01T23:00:15.072Z,83.70
2019-04-01T23:02:44.728Z,86.90
2019-04-01T23:05:14.303Z,86.80
2019-04-01T23:07:43.715Z,82.80
2019-04-01T23:10:13.609Z,83.20
2019-04-01T23:12:44.185Z,85.00
2019-04-01T23:15:15.372Z,84.80
2019-04-01T23:17:45.724Z,85.60
2019-04-01T23:20:15.356Z,87.80
2019-04-01T23:22:44.866Z,84.80
2019-04-01T23:25:14.574Z,86.10
2019-04-01T23:27:44.153Z,86.70
2019-04-01T23:30:14.221Z,85.30
2019-04-01T23:32:45.179Z,86.10
2019-04-01T23:35:14.998Z,83.80
2019-04-01T23:37:44.418Z,89.00
2019-04-01T23:40:13.992Z,89.50
2019-04-01T23:42:44.571Z,87.70
2019-04-01T23:45:14.023Z,90.00
2019-04-01T23:47:45.207Z,88.80
2019-04-01T23:50:14.777Z,87.90
2019-04-01T23:52:44.253Z,88.20
2019-04-01T23:55:14.668Z,88.70
2019-04-01T23:57:44.150Z,87.50
